SeaTac, WA

5:07 PM PST on December 19, 2014 (GMT -0800)
Seattle-Tacoma International | Change Station
CLOSE
Current Station
Airport
Location: Seattle,
Elevation: 433 ft
Nearby Weather Stations
Active Advisory: Areal Flood Watch Active Notice: Record Report

Elev 433 ft 47.44 °N, 122.31 °W | Updated 14 minutes ago

Mostly Cloudy
Mostly Cloudy
50 °F
Feels Like 50 °F
N
8
Wind Variable Wind from South

Today
High -- | Low -- °F
--% Chance of Precip.
Yesterday
High -- | Low -- °F
Precip. -- in
7:52 AM 4:19 PM
Waning Crescent, 5% visible
Pressure 29.97 in
Visibility 10.0 miles
Clouds Scattered Clouds 4000 ft
Mostly Cloudy 5500 ft
Mostly Cloudy 8000 ft
Dew Point 37 °F
Humidity 61%
Rainfall 0.12 in
Snow Depth Not available.
UV 0 out of 12
Pollen .40 out of 12
Air Quality Not available.
Flu Activity Not available.
METAR KSEA 200053Z 18007KT 10SM SCT040 BKN055 BKN080 10/03 A2995 RMK AO2 SLP148 T01000028

More Conditions Fewer Conditions

Pressure 29.97 in
Visibility 10.0 miles
Clouds Scattered Clouds 4000 ft
Mostly Cloudy 5500 ft
Mostly Cloudy 8000 ft
Dew Point 37 °F
Humidity 61%
Rainfall 0.12 in
Snow Depth Not available.
UV 0 out of 12
Pollen .40 out of 12
Air Quality Not available.
Flu Activity Not available.
METAR KSEA 200053Z 18007KT 10SM SCT040 BKN055 BKN080 10/03 A2995 RMK AO2 SLP148 T01000028

More Conditions Fewer Conditions

10-Day Weather Forecast

Almanac

Astronomy

Dec. 19, 2014 Rise Set
Actual Time
Civil Twilight
Nautical Twilight
Astronomical Twilight
Moon
Length of Visible Light
Length of Day
Tomorrow will be .
, % of the Moon is Illuminated

Today's Extremes

State Highs State Lows

Community

WunderPhotos

Upload Photos

1,779,095 photos uploaded!

WunderBlogs® & News

Nearby

Air Quality

  Air Quality AQ Index Pollutant
Not available.

Snow Depth

Station Depth Elevation

Earthquake Activity

City Distance Mag. Time & Date
Minimum magnitude displayed is 2.5.

Coastal Water Temperatures

Place Temperature

Nearby Weather Stations